createdAt,value
2019-05-12T00:04:48.814Z,99.90
2019-05-12T00:09:53.641Z,99.90
2019-05-12T00:14:59.002Z,99.90
2019-05-12T00:20:04.138Z,99.90
2019-05-12T00:25:08.889Z,99.90
2019-05-12T00:30:35.121Z,99.90
2019-05-12T00:35:39.786Z,99.90
2019-05-12T00:40:44.328Z,99.90
2019-05-12T00:45:48.878Z,99.90
2019-05-12T00:50:53.446Z,99.90
2019-05-12T00:55:58.046Z,99.90
2019-05-12T01:01:02.666Z,99.90
2019-05-12T01:06:08.408Z,99.90
2019-05-12T01:11:13.189Z,99.90
2019-05-12T01:16:18.409Z,99.90
2019-05-12T01:21:24.199Z,99.90
2019-05-12T01:26:28.767Z,99.90
2019-05-12T01:31:37.771Z,99.90
2019-05-12T01:36:42.443Z,99.90
2019-05-12T01:41:48.120Z,99.90
2019-05-12T01:46:53.211Z,99.90
2019-05-12T01:51:58.233Z,99.90
2019-05-12T01:57:03.067Z,99.90
2019-05-12T02:02:08.586Z,99.90
2019-05-12T02:07:14.584Z,99.90
2019-05-12T02:12:19.187Z,99.90
2019-05-12T02:17:24.179Z,99.90
2019-05-12T02:22:29.147Z,99.90
2019-05-12T02:27:33.932Z,99.90
2019-05-12T02:32:48.619Z,99.90
2019-05-12T02:37:45.333Z,99.90
2019-05-12T02:42:50.170Z,99.90
2019-05-12T02:47:54.894Z,99.90
2019-05-12T02:53:05.468Z,99.90
2019-05-12T02:58:15.542Z,99.90
2019-05-12T03:03:24.909Z,99.90
2019-05-12T03:08:30.905Z,99.90
2019-05-12T03:13:35.502Z,99.90
2019-05-12T03:18:40.200Z,99.90
2019-05-12T03:23:45.051Z,99.90
2019-05-12T03:28:49.721Z,99.90
2019-05-12T03:34:00.237Z,99.90
2019-05-12T03:39:00.622Z,99.90
2019-05-12T03:44:05.406Z,99.90
2019-05-12T03:49:10.276Z,99.90
2019-05-12T03:54:15.388Z,99.90
2019-05-12T03:59:20.501Z,99.90
2019-05-12T04:04:25.085Z,99.90
2019-05-12T04:09:29.711Z,99.90
2019-05-12T04:14:34.641Z,99.90
2019-05-12T04:19:39.315Z,99.90
2019-05-12T04:24:44.564Z,99.90
2019-05-12T04:29:49.579Z,99.90
2019-05-12T04:34:55.024Z,99.90
2019-05-12T04:39:59.983Z,99.90
2019-05-12T04:45:04.995Z,99.90
2019-05-12T04:50:09.766Z,99.90
2019-05-12T04:55:15.260Z,99.90
2019-05-12T05:00:20.464Z,99.90
2019-05-12T05:05:25.130Z,99.90
2019-05-12T05:10:30.032Z,99.90
2019-05-12T05:15:35.485Z,99.90
2019-05-12T05:20:40.220Z,99.90
2019-05-12T05:25:44.794Z,99.90
2019-05-12T05:30:49.623Z,99.90
2019-05-12T05:35:54.468Z,99.90
2019-05-12T05:40:59.734Z,99.90
2019-05-12T05:46:07.932Z,99.90
2019-05-12T05:51:13.658Z,99.90
2019-05-12T05:56:20.707Z,99.90
2019-05-12T06:01:25.282Z,99.90
2019-05-12T06:06:30.324Z,99.90
2019-05-12T06:11:34.956Z,99.90
2019-05-12T06:16:39.550Z,99.90
2019-05-12T06:21:44.231Z,99.90
2019-05-12T06:26:57.718Z,99.90
2019-05-12T06:32:00.053Z,99.90
2019-05-12T06:37:11.907Z,99.90
2019-05-12T06:42:14.277Z,99.90
2019-05-12T06:47:23.563Z,99.90
2019-05-12T06:52:27.860Z,99.90
2019-05-12T06:57:34.252Z,99.90
2019-05-12T07:02:48.742Z,99.90
2019-05-12T07:07:46.174Z,99.90
2019-05-12T07:13:01.061Z,99.90
2019-05-12T07:18:04.546Z,99.90
2019-05-12T07:23:09.147Z,99.90
2019-05-12T07:28:14.492Z,99.90
2019-05-12T07:33:19.623Z,99.90
2019-05-12T07:38:26.151Z,99.90
2019-05-12T07:43:33.719Z,99.90
2019-05-12T07:48:40.281Z,99.90
2019-05-12T07:53:46.773Z,99.90
2019-05-12T07:58:54.223Z,99.90
2019-05-12T08:04:00.158Z,99.90
2019-05-12T08:09:04.158Z,99.90
2019-05-12T08:14:13.750Z,99.90
2019-05-12T08:19:23.879Z,99.90
2019-05-12T08:24:23.752Z,99.90
2019-05-12T08:29:27.711Z,99.90
2019-05-12T08:34:34.053Z,96.60
2019-05-12T08:39:39.073Z,97.10
2019-05-12T08:44:44.052Z,94.70
2019-05-12T08:49:55.047Z,96.80
2019-05-12T08:54:55.252Z,92.90
2019-05-12T09:00:03.018Z,92.10
2019-05-12T09:05:07.612Z,93.20
2019-05-12T09:10:14.254Z,92.00
2019-05-12T09:15:19.304Z,90.00
2019-05-12T09:20:24.268Z,88.40
2019-05-12T09:25:29.507Z,89.40
2019-05-12T09:30:34.139Z,80.20
2019-05-12T09:35:43.575Z,80.10
2019-05-12T09:40:52.868Z,73.60
2019-05-12T09:45:56.465Z,78.90
2019-05-12T09:51:08.519Z,77.00
2019-05-12T09:56:13.759Z,79.80
2019-05-12T10:01:18.540Z,80.40
2019-05-12T10:06:24.619Z,80.90
2019-05-12T10:11:29.538Z,79.30
2019-05-12T10:16:34.119Z,78.30
2019-05-12T10:21:38.734Z,83.30
2019-05-12T10:26:48.910Z,74.10
2019-05-12T10:31:49.664Z,75.00
2019-05-12T10:36:55.334Z,77.00
2019-05-12T10:42:00.563Z,76.30
2019-05-12T10:47:06.302Z,74.90
2019-05-12T10:52:10.908Z,70.30
2019-05-12T10:57:15.997Z,68.70
2019-05-12T11:02:26.617Z,71.40
2019-05-12T11:07:28.100Z,73.90
2019-05-12T11:12:33.582Z,71.80
2019-05-12T11:17:57.412Z,73.00
2019-05-12T11:23:03.506Z,73.40
2019-05-12T11:28:08.563Z,70.00
2019-05-12T11:33:13.252Z,71.10
2019-05-12T11:38:17.829Z,70.80
2019-05-12T11:43:24.622Z,70.70
2019-05-12T11:48:28.691Z,65.60
2019-05-12T11:53:35.073Z,66.20
2019-05-12T11:58:41.123Z,66.80
2019-05-12T12:03:47.108Z,70.10
2019-05-12T12:08:53.607Z,64.90
2019-05-12T12:14:00.344Z,66.00
2019-05-12T12:19:05.769Z,57.00
2019-05-12T12:24:10.660Z,53.60
2019-05-12T12:29:15.231Z,57.60
2019-05-12T12:34:23.986Z,58.90
2019-05-12T12:39:26.067Z,56.20
2019-05-12T12:44:30.643Z,50.40
2019-05-12T12:49:39.779Z,52.60
2019-05-12T12:54:43.711Z,56.60
2019-05-12T12:59:51.440Z,54.00
2019-05-12T13:04:54.087Z,54.50
2019-05-12T13:10:04.702Z,51.10
2019-05-12T13:15:06.535Z,50.20
2019-05-12T13:20:12.555Z,46.90
2019-05-12T13:25:17.282Z,49.40
2019-05-12T13:30:24.281Z,50.60
2019-05-12T13:35:28.182Z,49.40
2019-05-12T13:40:36.114Z,52.80
2019-05-12T13:45:39.024Z,50.70
2019-05-12T13:50:43.587Z,51.70
2019-05-12T13:55:49.734Z,50.40
2019-05-12T14:01:10.476Z,52.00
2019-05-12T14:06:03.388Z,50.40
2019-05-12T14:11:07.337Z,49.40
2019-05-12T14:16:12.151Z,51.00
2019-05-12T14:21:16.737Z,49.60
2019-05-12T14:26:21.344Z,48.90
2019-05-12T14:31:30.199Z,49.40
2019-05-12T14:36:32.254Z,47.30
2019-05-12T14:41:36.830Z,48.80
2019-05-12T14:46:46.304Z,50.30
2019-05-12T14:51:47.887Z,48.30
2019-05-12T14:56:53.646Z,47.40
2019-05-12T15:01:59.549Z,48.60
2019-05-12T15:07:09.665Z,49.30
2019-05-12T15:12:13.895Z,48.70
2019-05-12T15:17:22.385Z,47.20
2019-05-12T15:22:27.830Z,45.80
2019-05-12T15:27:42.339Z,46.40
2019-05-12T15:32:38.763Z,45.80
2019-05-12T15:37:43.816Z,40.70
2019-05-12T15:42:48.664Z,43.50
2019-05-12T15:47:53.578Z,42.50
2019-05-12T15:52:58.266Z,42.50
2019-05-12T15:58:05.537Z,40.70
2019-05-12T16:03:09.133Z,39.70
2019-05-12T16:08:14.358Z,43.60
2019-05-12T16:13:19.079Z,41.90
2019-05-12T16:18:26.746Z,43.10
2019-05-12T16:23:30.330Z,43.20
2019-05-12T16:28:35.262Z,44.20
2019-05-12T16:33:40.099Z,44.20
2019-05-12T16:38:44.717Z,44.40
2019-05-12T16:43:49.405Z,45.60
2019-05-12T16:48:56.931Z,46.80
2019-05-12T16:54:00.702Z,47.20
2019-05-12T16:59:15.027Z,46.00
2019-05-12T17:04:13.420Z,47.30
2019-05-12T17:09:18.297Z,46.80
2019-05-12T17:14:23.488Z,47.80
2019-05-12T17:19:29.170Z,47.40
2019-05-12T17:24:34.404Z,48.20
2019-05-12T17:29:40.463Z,48.90
2019-05-12T17:34:45.645Z,50.30
2019-05-12T17:39:51.339Z,52.00
2019-05-12T17:44:56.232Z,52.00
2019-05-12T17:50:06.884Z,51.60
2019-05-12T17:55:10.655Z,50.90
2019-05-12T18:00:16.200Z,53.10
2019-05-12T18:05:23.247Z,51.90
2019-05-12T18:10:27.424Z,52.30
2019-05-12T18:15:37.767Z,53.10
2019-05-12T18:20:41.811Z,52.70
2019-05-12T18:25:48.154Z,54.60
2019-05-12T18:30:53.832Z,54.90
2019-05-12T18:35:59.187Z,55.30
2019-05-12T18:41:05.174Z,56.00
2019-05-12T18:46:09.750Z,56.90
2019-05-12T18:51:17.174Z,57.30
2019-05-12T18:56:24.847Z,57.80
2019-05-12T19:01:29.633Z,58.50
2019-05-12T19:06:35.250Z,59.30
2019-05-12T19:11:42.077Z,60.10
2019-05-12T19:16:46.843Z,63.50
2019-05-12T19:21:58.773Z,70.60
2019-05-12T19:26:57.724Z,75.10
2019-05-12T19:32:04.513Z,82.20
2019-05-12T19:37:08.556Z,85.50
2019-05-12T19:42:19.042Z,90.30
2019-05-12T19:47:21.234Z,88.50
2019-05-12T19:52:25.835Z,93.20
2019-05-12T19:57:34.548Z,95.70
2019-05-12T20:02:39.843Z,94.90
2019-05-12T20:07:44.807Z,94.90
2019-05-12T20:12:54.886Z,94.90
2019-05-12T20:17:57.416Z,96.20
2019-05-12T20:23:03.540Z,97.20
2019-05-12T20:28:11.347Z,98.40
2019-05-12T20:33:16.805Z,99.90
2019-05-12T20:38:27.240Z,99.90
2019-05-12T20:43:32.564Z,99.90
2019-05-12T20:48:35.347Z,99.90
2019-05-12T20:53:39.922Z,99.90
2019-05-12T20:58:46.537Z,99.90
2019-05-12T21:03:51.150Z,99.90
2019-05-12T21:08:56.633Z,99.90
2019-05-12T21:14:10.109Z,99.90
2019-05-12T21:19:11.097Z,99.90
2019-05-12T21:24:14.270Z,99.60
2019-05-12T21:29:24.141Z,99.60
2019-05-12T21:34:25.613Z,99.90
2019-05-12T21:39:30.421Z,99.90
2019-05-12T21:44:34.999Z,99.90
2019-05-12T21:49:42.605Z,99.90
2019-05-12T21:54:45.875Z,99.90
2019-05-12T21:59:50.763Z,99.90
2019-05-12T22:04:56.024Z,99.90
2019-05-12T22:10:00.835Z,99.90
2019-05-12T22:15:05.695Z,99.90
2019-05-12T22:20:17.956Z,99.90
2019-05-12T22:25:17.620Z,99.90
2019-05-12T22:30:24.159Z,99.90
2019-05-12T22:35:28.998Z,99.90
2019-05-12T22:40:34.639Z,99.90
2019-05-12T22:45:44.184Z,99.90
2019-05-12T22:50:45.494Z,99.90
2019-05-12T22:55:50.071Z,99.90
2019-05-12T23:01:01.345Z,99.90
2019-05-12T23:06:20.381Z,99.90
2019-05-12T23:11:14.436Z,99.90
2019-05-12T23:16:19.230Z,99.90
2019-05-12T23:21:25.871Z,99.90
2019-05-12T23:26:33.248Z,99.90
2019-05-12T23:31:36.938Z,99.90
2019-05-12T23:36:43.865Z,99.90
2019-05-12T23:41:47.856Z,99.90
2019-05-12T23:46:53.828Z,99.90
2019-05-12T23:51:58.883Z,99.90
2019-05-12T23:57:03.837Z,99.90
